Time;durP1;ratioP1;P1;durP2;ratioP2;P2;SDS_P1;SDS_P2;PMS_P1;PMS_P2;Temp;Humidity;BMP_temperature;BMP_pressure;BME280_temperature;BME280_humidity;BME280_pressure;Samples;Min_cycle;Max_cycle;Signal;HPM_P1;HPM_P2
2023/07/02 00:01:43;;;;;;;3.50;1.15;;;;;;;;;;4911138;29;20079;-86
2023/07/02 00:04:10;;;;;;;2.22;1.10;;;;;;;;;;4911680;29;20070;-85
2023/07/02 00:06:40;;;;;;;2.30;1.23;;;;;;;;;;4908142;29;20035;-84
2023/07/02 00:09:10;;;;;;;3.13;1.10;;;;;;;;;;4927250;29;20373;-84
2023/07/02 00:11:39;;;;;;;1.92;0.95;;;;;;;;;;4906468;29;20049;-82
2023/07/02 00:14:06;;;;;;;2.28;1.17;;;;;;;;;;4900145;29;20044;-83
2023/07/02 00:16:52;;;;;;;2.22;1.25;;;;;;;;;;4903617;29;20045;-84
2023/07/02 00:19:17;;;;;;;2.75;1.38;;;;;;;;;;4890466;29;20040;-85
2023/07/02 00:21:43;;;;;;;4.45;1.55;;;;;;;;;;4890433;29;20604;-85
2023/07/02 00:24:11;;;;;;;2.60;1.50;;;;;;;;;;4875368;29;20055;-83
2023/07/02 00:26:37;;;;;;;3.15;1.25;;;;;;;;;;4889817;29;20443;-84
2023/07/02 00:29:05;;;;;;;2.80;1.52;;;;;;;;;;4891919;29;20040;-84
2023/07/02 00:31:33;;;;;;;4.18;1.40;;;;;;;;;;4902532;29;20428;-83
2023/07/02 00:34:00;;;;;;;3.30;1.45;;;;;;;;;;4882516;29;20033;-84
2023/07/02 00:36:26;;;;;;;3.38;1.50;;;;;;;;;;4883448;29;20139;-83
2023/07/02 00:38:52;;;;;;;2.80;1.70;;;;;;;;;;4894162;29;20119;-83
2023/07/02 00:41:17;;;;;;;3.08;1.60;;;;;;;;;;4879074;29;20518;-83
2023/07/02 00:43:46;;;;;;;3.58;1.88;;;;;;;;;;4910000;29;20107;-84
2023/07/02 00:46:17;;;;;;;3.88;1.80;;;;;;;;;;4844762;29;20040;-83
2023/07/02 00:48:43;;;;;;;5.95;2.30;;;;;;;;;;4894318;29;20043;-84
2023/07/02 00:51:14;;;;;;;3.10;2.00;;;;;;;;;;4877757;29;20040;-84
2023/07/02 00:53:40;;;;;;;3.80;1.98;;;;;;;;;;4886170;29;20036;-83
2023/07/02 00:56:06;;;;;;;3.60;1.98;;;;;;;;;;4916191;29;20046;-84
2023/07/02 00:58:33;;;;;;;3.65;1.92;;;;;;;;;;4929964;29;20096;-83
2023/07/02 01:00:58;;;;;;;3.22;2.17;;;;;;;;;;4912792;29;20036;-84
2023/07/02 01:03:24;;;;;;;3.10;1.90;;;;;;;;;;4929350;29;20039;-83
2023/07/02 01:05:49;;;;;;;4.43;2.20;;;;;;;;;;4905646;29;20032;-85
2023/07/02 01:08:21;;;;;;;3.75;2.20;;;;;;;;;;4911152;29;20657;-83
2023/07/02 01:10:46;;;;;;;3.78;2.13;;;;;;;;;;4912531;29;20028;-84
2023/07/02 01:13:16;;;;;;;6.18;3.00;;;;;;;;;;4913365;29;20035;-84
2023/07/02 01:15:43;;;;;;;3.50;2.30;;;;;;;;;;4922903;29;20442;-83
2023/07/02 01:18:09;;;;;;;3.60;2.10;;;;;;;;;;4913535;29;20040;-82
2023/07/02 01:20:44;;;;;;;4.50;2.53;;;;;;;;;;4913201;29;20047;-83
2023/07/02 01:23:09;;;;;;;4.05;2.40;;;;;;;;;;4919447;29;20032;-83
2023/07/02 01:25:36;;;;;;;4.45;2.42;;;;;;;;;;4905157;29;20075;-83
2023/07/02 01:28:04;;;;;;;4.40;2.83;;;;;;;;;;4916025;29;20603;-84
2023/07/02 01:30:30;;;;;;;4.68;2.90;;;;;;;;;;4944661;29;20056;-84
2023/07/02 01:32:57;;;;;;;5.30;3.20;;;;;;;;;;4908059;29;20427;-85
2023/07/02 01:35:23;;;;;;;5.25;2.97;;;;;;;;;;4910483;29;20483;-85
2023/07/02 01:37:49;;;;;;;4.00;2.97;;;;;;;;;;4925711;29;20043;-85
2023/07/02 01:40:26;;;;;;;3.75;2.95;;;;;;;;;;4941870;28;20049;-84
2023/07/02 01:42:53;;;;;;;5.72;3.20;;;;;;;;;;4899605;29;20151;-86
2023/07/02 01:45:39;;;;;;;;;;;;;;;;;;4902790;29;20416;-85
2023/07/02 01:48:05;;;;;;;6.97;3.75;;;;;;;;;;4905014;29;19922;-85
2023/07/02 01:50:30;;;;;;;5.18;3.22;;;;;;;;;;4928621;29;20039;-84
2023/07/02 01:53:02;;;;;;;5.20;3.67;;;;;;;;;;4902518;29;20035;-84
2023/07/02 01:55:27;;;;;;;5.18;3.50;;;;;;;;;;4900527;29;20043;-85
2023/07/02 01:57:55;;;;;;;6.30;3.85;;;;;;;;;;4902859;29;20040;-85
2023/07/02 02:00:21;;;;;;;7.55;3.60;;;;;;;;;;4896539;29;20039;-85
2023/07/02 02:02:46;;;;;;;5.93;3.55;;;;;;;;;;4913849;29;20036;-85
2023/07/02 02:08:04;;;;;;;4.68;3.30;;;;;;;;;;4928328;29;20046;-84
2023/07/02 02:10:29;;;;;;;5.35;3.17;;;;;;;;;;4894478;29;20048;-84
2023/07/02 02:12:55;;;;;;;5.57;3.35;;;;;;;;;;4895765;29;20111;-83
2023/07/02 02:15:20;;;;;;;4.70;3.03;;;;;;;;;;4927370;29;20369;-84
2023/07/02 02:17:45;;;;;;;5.38;3.20;;;;;;;;;;4904596;29;20149;-85
2023/07/02 02:20:11;;;;;;;5.32;2.90;;;;;;;;;;4912324;29;20063;-84
2023/07/02 02:22:42;;;;;;;4.75;3.00;;;;;;;;;;4884287;29;20158;-83
2023/07/02 02:25:09;;;;;;;5.35;3.08;;;;;;;;;;4899404;29;20492;-84
2023/07/02 02:27:34;;;;;;;5.65;3.13;;;;;;;;;;4911089;29;20034;-83
2023/07/02 02:30:00;;;;;;;5.55;2.70;;;;;;;;;;4908115;29;20032;-83
2023/07/02 02:32:25;;;;;;;5.22;2.83;;;;;;;;;;4927319;29;20105;-85
2023/07/02 02:34:50;;;;;;;5.75;2.65;;;;;;;;;;4918272;29;20058;-85
2023/07/02 02:37:21;;;;;;;6.30;3.00;;;;;;;;;;4912394;29;20055;-84
2023/07/02 02:39:52;;;;;;;6.07;3.00;;;;;;;;;;4944001;29;20039;-83
2023/07/02 02:42:17;;;;;;;6.05;2.58;;;;;;;;;;4915000;29;20048;-84
2023/07/02 02:44:43;;;;;;;5.18;2.95;;;;;;;;;;4913410;29;20043;-84
2023/07/02 02:47:08;;;;;;;4.65;2.67;;;;;;;;;;4917328;29;20040;-83
2023/07/02 02:49:34;;;;;;;4.43;2.72;;;;;;;;;;4929969;29;20070;-83
2023/07/02 02:51:59;;;;;;;5.57;3.00;;;;;;;;;;4911926;29;20095;-84
2023/07/02 02:54:24;;;;;;;5.28;2.80;;;;;;;;;;4915312;29;20059;-83
2023/07/02 02:56:50;;;;;;;5.95;2.90;;;;;;;;;;4928783;29;20044;-83
2023/07/02 02:59:54;;;;;;;;;;;;;;;;;;;;;
2023/07/02 03:02:33;;;;;;;5.32;3.10;;;;;;;;;;4868030;29;21557;-83
2023/07/02 03:05:13;;;;;;;7.45;2.72;;;;;;;;;;4917984;29;20451;-83
2023/07/02 03:07:52;;;;;;;4.63;2.60;;;;;;;;;;4907473;29;20113;-83
2023/07/02 03:10:17;;;;;;;7.00;2.80;;;;;;;;;;4906307;29;20039;-84
2023/07/02 03:12:43;;;;;;;3.58;2.10;;;;;;;;;;4918102;29;20690;-83
2023/07/02 03:15:17;;;;;;;4.93;2.83;;;;;;;;;;4913979;29;20032;-83
2023/07/02 03:17:46;;;;;;;4.68;2.38;;;;;;;;;;4902544;29;20055;-84
2023/07/02 03:20:11;;;;;;;7.18;2.70;;;;;;;;;;4886399;29;20044;-84
2023/07/02 03:22:37;;;;;;;4.68;2.90;;;;;;;;;;4920476;29;20038;-85
2023/07/02 03:25:02;;;;;;;4.90;2.65;;;;;;;;;;4927693;29;20080;-83
2023/07/02 03:27:30;;;;;;;4.47;2.50;;;;;;;;;;4927256;29;20036;-82
2023/07/02 03:29:55;;;;;;;5.15;2.72;;;;;;;;;;4926887;29;20036;-84
2023/07/02 03:32:21;;;;;;;5.53;2.90;;;;;;;;;;4910342;29;20046;-84
2023/07/02 03:34:46;;;;;;;5.82;2.65;;;;;;;;;;4903340;29;20400;-84
2023/07/02 03:37:12;;;;;;;4.22;2.80;;;;;;;;;;4906021;29;20036;-83
2023/07/02 03:39:37;;;;;;;4.85;2.35;;;;;;;;;;4908659;29;20034;-85
2023/07/02 03:42:05;;;;;;;5.10;2.70;;;;;;;;;;4930579;29;20079;-84
2023/07/02 03:44:30;;;;;;;4.25;2.47;;;;;;;;;;4905675;29;20167;-83
2023/07/02 03:47:15;;;;;;;4.15;2.42;;;;;;;;;;4908690;28;20193;-84
2023/07/02 03:49:41;;;;;;;5.10;2.65;;;;;;;;;;4893323;29;20040;-84
2023/07/02 03:52:39;;;;;;;6.63;2.78;;;;;;;;;;4939559;29;20137;-84
2023/07/02 03:55:07;;;;;;;5.45;2.75;;;;;;;;;;4892557;29;20093;-84
2023/07/02 03:57:48;;;;;;;3.47;2.30;;;;;;;;;;4909942;29;20341;-84
2023/07/02 04:00:14;;;;;;;3.75;2.22;;;;;;;;;;4892871;29;20112;-83
2023/07/02 04:02:40;;;;;;;5.38;2.45;;;;;;;;;;4895067;28;20546;-82
2023/07/02 04:05:06;;;;;;;3.53;2.60;;;;;;;;;;4911415;29;20411;-83
2023/07/02 04:07:31;;;;;;;5.10;2.40;;;;;;;;;;4904488;29;20046;-85
2023/07/02 04:10:02;;;;;;;5.03;2.40;;;;;;;;;;4902930;28;20044;-83
2023/07/02 04:12:27;;;;;;;3.92;2.40;;;;;;;;;;4910469;29;20476;-82
2023/07/02 04:15:20;;;;;;;3.95;2.30;;;;;;;;;;4925952;29;20047;-83
2023/07/02 04:17:46;;;;;;;4.20;2.30;;;;;;;;;;4924838;29;20060;-83
2023/07/02 04:20:11;;;;;;;6.13;2.63;;;;;;;;;;4893895;29;20091;-84
2023/07/02 04:22:37;;;;;;;4.32;2.50;;;;;;;;;;4917693;29;20044;-84
2023/07/02 04:25:02;;;;;;;4.75;2.45;;;;;;;;;;4911219;29;20058;-83
2023/07/02 04:27:30;;;;;;;4.60;2.50;;;;;;;;;;4901081;29;20090;-82
2023/07/02 04:29:56;;;;;;;3.35;2.20;;;;;;;;;;4900359;29;20046;-83
2023/07/02 04:32:21;;;;;;;3.45;2.15;;;;;;;;;;4894659;29;20404;-83
2023/07/02 04:34:53;;;;;;;3.85;2.40;;;;;;;;;;4916097;29;20262;-83
2023/07/02 04:37:19;;;;;;;4.90;2.20;;;;;;;;;;4912870;29;20032;-84
2023/07/02 04:39:44;;;;;;;6.50;2.35;;;;;;;;;;4921861;29;20042;-85
2023/07/02 04:42:09;;;;;;;4.85;2.60;;;;;;;;;;4925273;29;20044;-84
2023/07/02 04:44:35;;;;;;;4.15;2.25;;;;;;;;;;4928402;29;20100;-87
2023/07/02 04:47:06;;;;;;;6.30;2.10;;;;;;;;;;4906464;29;20468;-88
2023/07/02 04:49:32;;;;;;;5.00;2.22;;;;;;;;;;4909850;29;20051;-86
2023/07/02 04:51:57;;;;;;;10.23;2.20;;;;;;;;;;4927368;29;20061;-87
2023/07/02 04:54:23;;;;;;;3.67;1.95;;;;;;;;;;4927240;29;20062;-87
2023/07/02 04:56:48;;;;;;;4.95;2.47;;;;;;;;;;4919117;29;20508;-87
2023/07/02 04:59:17;;;;;;;5.15;2.47;;;;;;;;;;4918461;29;20044;-87
2023/07/02 05:01:44;;;;;;;4.68;2.13;;;;;;;;;;4904637;29;20411;-87
2023/07/02 05:04:13;;;;;;;4.67;2.00;;;;;;;;;;4903188;29;20637;-88
2023/07/02 05:06:39;;;;;;;4.53;2.20;;;;;;;;;;4909865;29;20103;-87
2023/07/02 05:09:04;;;;;;;4.25;2.53;;;;;;;;;;4900667;29;20138;-88
2023/07/02 05:11:30;;;;;;;4.75;2.13;;;;;;;;;;4923118;29;20032;-87
2023/07/02 05:13:55;;;;;;;5.72;2.33;;;;;;;;;;4903705;29;20039;-87
2023/07/02 05:16:21;;;;;;;5.68;2.30;;;;;;;;;;4914335;29;20047;-87
2023/07/02 05:18:46;;;;;;;3.67;2.10;;;;;;;;;;4926951;29;20407;-87
2023/07/02 05:21:11;;;;;;;5.15;2.17;;;;;;;;;;4926883;29;20075;-85
2023/07/02 05:23:37;;;;;;;5.90;2.40;;;;;;;;;;4946399;29;20036;-85
2023/07/02 05:26:03;;;;;;;3.70;2.00;;;;;;;;;;4930150;29;20416;-85
2023/07/02 05:28:28;;;;;;;4.35;2.13;;;;;;;;;;4902827;29;20052;-86
2023/07/02 05:30:53;;;;;;;5.57;2.22;;;;;;;;;;4917684;28;20079;-86
2023/07/02 05:33:21;;;;;;;4.18;2.20;;;;;;;;;;4928103;29;20043;-85
2023/07/02 05:35:47;;;;;;;5.95;2.45;;;;;;;;;;4913092;29;20035;-87
2023/07/02 05:38:12;;;;;;;5.13;2.30;;;;;;;;;;4922817;29;20040;-86
2023/07/02 05:40:38;;;;;;;4.45;2.00;;;;;;;;;;4923197;29;20556;-86
2023/07/02 05:43:03;;;;;;;4.75;2.25;;;;;;;;;;4935279;29;20046;-87
2023/07/02 05:45:33;;;;;;;5.10;2.20;;;;;;;;;;4911667;29;20492;-87
2023/07/02 05:47:59;;;;;;;3.67;2.00;;;;;;;;;;4931596;29;20043;-86
2023/07/02 05:50:25;;;;;;;4.75;2.00;;;;;;;;;;4930853;29;20522;-86
2023/07/02 05:52:50;;;;;;;4.25;1.90;;;;;;;;;;4935890;29;20040;-86
2023/07/02 05:55:15;;;;;;;4.40;2.00;;;;;;;;;;4903249;29;20448;-87
2023/07/02 05:57:41;;;;;;;4.97;2.10;;;;;;;;;;4914380;29;20079;-86
2023/07/02 06:00:07;;;;;;;3.90;1.90;;;;;;;;;;4935220;29;20071;-86
2023/07/02 06:02:32;;;;;;;3.38;1.95;;;;;;;;;;4920585;29;20520;-88
2023/07/02 06:04:58;;;;;;;4.93;2.03;;;;;;;;;;4913542;29;20162;-86
2023/07/02 06:07:27;;;;;;;5.10;1.85;;;;;;;;;;4913504;29;20035;-86
2023/07/02 06:09:52;;;;;;;4.40;2.08;;;;;;;;;;4917749;29;20036;-86
2023/07/02 06:12:18;;;;;;;4.50;1.90;;;;;;;;;;4913402;29;20779;-86
2023/07/02 06:14:43;;;;;;;5.32;1.60;;;;;;;;;;4917471;29;20484;-86
2023/07/02 06:17:09;;;;;;;5.68;1.83;;;;;;;;;;4917441;29;20453;-86
2023/07/02 06:19:36;;;;;;;5.30;1.80;;;;;;;;;;4931624;29;20583;-86
2023/07/02 06:22:02;;;;;;;5.50;1.70;;;;;;;;;;4909014;29;20127;-86
2023/07/02 06:24:27;;;;;;;4.65;1.60;;;;;;;;;;4916712;29;20162;-87
2023/07/02 06:26:53;;;;;;;5.03;2.00;;;;;;;;;;4920080;29;20036;-87
2023/07/02 06:29:19;;;;;;;4.40;1.85;;;;;;;;;;4886152;29;20043;-87
2023/07/02 06:31:47;;;;;;;4.03;1.70;;;;;;;;;;4910192;29;20042;-87
2023/07/02 06:34:15;;;;;;;4.13;2.10;;;;;;;;;;4908759;29;20050;-87
2023/07/02 06:36:40;;;;;;;4.88;1.90;;;;;;;;;;4898927;29;20062;-89
2023/07/02 06:39:09;;;;;;;4.97;1.80;;;;;;;;;;4910389;29;20794;-88
2023/07/02 06:41:35;;;;;;;4.28;1.80;;;;;;;;;;4911845;29;20160;-86
2023/07/02 06:44:02;;;;;;;4.78;1.85;;;;;;;;;;4928033;29;20516;-87
2023/07/02 06:46:28;;;;;;;5.22;2.08;;;;;;;;;;4887988;29;20211;-86
2023/07/02 06:48:55;;;;;;;5.28;1.80;;;;;;;;;;4908645;29;20056;-88
2023/07/02 06:54:17;;;;;;;4.38;1.90;;;;;;;;;;4934320;29;20046;-86
2023/07/02 06:56:42;;;;;;;5.18;1.85;;;;;;;;;;4922165;29;20057;-87
2023/07/02 06:59:08;;;;;;;5.78;1.90;;;;;;;;;;4911845;29;20047;-87
2023/07/02 07:01:36;;;;;;;4.50;1.73;;;;;;;;;;4928081;29;20042;-87
2023/07/02 07:04:22;;;;;;;7.00;1.95;;;;;;;;;;4912014;29;20032;-86
2023/07/02 07:06:47;;;;;;;4.72;2.00;;;;;;;;;;4878861;29;20149;-89
2023/07/02 07:09:18;;;;;;;4.10;1.92;;;;;;;;;;4909401;29;20126;-86
2023/07/02 07:11:43;;;;;;;4.15;1.83;;;;;;;;;;4888259;29;20390;-87
2023/07/02 07:14:09;;;;;;;3.67;1.80;;;;;;;;;;4898110;29;20118;-87
2023/07/02 07:16:40;;;;;;;5.65;1.90;;;;;;;;;;4902522;29;20057;-88
2023/07/02 07:19:07;;;;;;;5.18;1.67;;;;;;;;;;4895729;29;20122;-85
2023/07/02 07:22:32;;;;;;;5.77;2.13;;;;;;;;;;4911254;29;20047;-85
2023/07/02 07:25:13;;;;;;;4.90;1.80;;;;;;;;;;4827749;29;20357;-83
2023/07/02 07:28:11;;;;;;;5.35;1.70;;;;;;;;;;4840363;29;20046;-84
2023/07/02 07:31:06;;;;;;;4.55;1.85;;;;;;;;;;4829404;29;21862;-86
2023/07/02 07:33:31;;;;;;;6.85;1.90;;;;;;;;;;4841345;29;20041;-80
2023/07/02 07:36:20;;;;;;;3.38;1.75;;;;;;;;;;4842170;29;20081;-83
2023/07/02 07:38:48;;;;;;;3.47;1.90;;;;;;;;;;4862066;29;20801;-82
2023/07/02 07:41:14;;;;;;;4.22;1.80;;;;;;;;;;4809359;29;20041;-81
2023/07/02 07:44:01;;;;;;;3.78;1.73;;;;;;;;;;4835226;29;20493;-80
2023/07/02 07:46:26;;;;;;;4.63;1.80;;;;;;;;;;4820044;29;20387;-82
2023/07/02 07:49:15;;;;;;;5.15;1.80;;;;;;;;;;4875384;29;20040;-83
2023/07/02 07:51:43;;;;;;;3.92;1.83;;;;;;;;;;4858710;29;20198;-82
2023/07/02 07:54:54;;;;;;;4.15;1.90;;;;;;;;;;4856063;29;20110;-83
2023/07/02 07:57:19;;;;;;;4.88;1.80;;;;;;;;;;4842804;29;20092;-81
2023/07/02 08:00:32;;;;;;;5.15;2.03;;;;;;;;;;4894625;29;20040;-82
2023/07/02 08:03:41;;;;;;;5.45;1.95;;;;;;;;;;4913967;28;20516;-83
2023/07/02 08:09:34;;;;;;;12.35;2.25;;;;;;;;;;4897756;29;20052;-82
2023/07/02 08:12:00;;;;;;;5.10;1.90;;;;;;;;;;4903068;29;20523;-80
2023/07/02 08:14:25;;;;;;;5.57;2.10;;;;;;;;;;4911770;29;20051;-79
2023/07/02 08:16:51;;;;;;;3.42;2.05;;;;;;;;;;4929923;29;20770;-79
2023/07/02 08:19:20;;;;;;;6.65;2.20;;;;;;;;;;4911171;29;20452;-81
2023/07/02 08:21:45;;;;;;;5.40;2.25;;;;;;;;;;4910427;29;20531;-80
2023/07/02 08:24:12;;;;;;;5.13;2.50;;;;;;;;;;4911040;29;20127;-81
2023/07/02 08:26:38;;;;;;;4.97;2.30;;;;;;;;;;4942011;29;20043;-81
2023/07/02 08:29:03;;;;;;;7.32;2.85;;;;;;;;;;4941934;29;20032;-82
2023/07/02 08:31:29;;;;;;;6.43;2.58;;;;;;;;;;4909904;29;20040;-81
2023/07/02 08:33:54;;;;;;;8.70;2.63;;;;;;;;;;4911257;29;20040;-80
2023/07/02 08:36:22;;;;;;;6.15;2.80;;;;;;;;;;4909094;29;20371;-82
2023/07/02 08:38:47;;;;;;;7.93;2.90;;;;;;;;;;4925985;29;20035;-79
2023/07/02 08:41:13;;;;;;;5.78;2.63;;;;;;;;;;4909353;29;20561;-79
2023/07/02 08:43:39;;;;;;;6.82;2.78;;;;;;;;;;4925956;29;20141;-78
2023/07/02 08:46:04;;;;;;;6.78;2.60;;;;;;;;;;4925648;29;20411;-80
2023/07/02 08:48:30;;;;;;;6.57;2.90;;;;;;;;;;4913609;29;20040;-79
2023/07/02 08:51:03;;;;;;;5.05;2.78;;;;;;;;;;4913055;29;20031;-80
2023/07/02 08:53:33;;;;;;;6.32;2.58;;;;;;;;;;4919746;29;20098;-85
2023/07/02 08:56:38;;;;;;;7.32;2.55;;;;;;;;;;4889795;29;20480;-88
2023/07/02 09:02:15;;;;;;;6.68;3.00;;;;;;;;;;4840196;29;20119;-84
2023/07/02 09:04:43;;;;;;;7.05;2.70;;;;;;;;;;4907496;29;20119;-85
2023/07/02 09:07:10;;;;;;;5.70;3.03;;;;;;;;;;4904423;29;20116;-84
2023/07/02 09:09:46;;;;;;;;;;;;;;;;;;4905246;29;20570;-86
2023/07/02 09:12:27;;;;;;;6.43;3.10;;;;;;;;;;4876114;29;19919;-84
2023/07/02 09:15:06;;;;;;;6.72;3.10;;;;;;;;;;4914383;29;20039;-85
2023/07/02 09:17:57;;;;;;;5.95;3.08;;;;;;;;;;4906116;29;20118;-85
2023/07/02 09:23:44;;;;;;;6.20;2.80;;;;;;;;;;4902681;29;20039;-86
2023/07/02 09:26:19;;;;;;;6.93;3.22;;;;;;;;;;4916481;29;20452;-85
2023/07/02 09:28:48;;;;;;;4.97;2.45;;;;;;;;;;4929310;29;20040;-85
2023/07/02 09:31:14;;;;;;;6.35;2.80;;;;;;;;;;4894577;29;20043;-84
2023/07/02 09:33:39;;;;;;;7.90;3.10;;;;;;;;;;4924213;29;20075;-83
2023/07/02 09:36:05;;;;;;;5.30;2.42;;;;;;;;;;4927437;29;20046;-83
2023/07/02 09:38:43;;;;;;;5.15;2.70;;;;;;;;;;4912648;29;20054;-80
2023/07/02 09:41:11;;;;;;;5.70;3.03;;;;;;;;;;4911340;28;20118;-88
2023/07/02 09:43:38;;;;;;;7.13;2.97;;;;;;;;;;4903873;29;20046;-84
2023/07/02 09:46:06;;;;;;;6.97;2.70;;;;;;;;;;4922868;29;20774;-84
2023/07/02 09:48:33;;;;;;;7.35;2.83;;;;;;;;;;4916780;29;20054;-86
2023/07/02 09:50:59;;;;;;;6.25;2.85;;;;;;;;;;4944225;29;20043;-86
2023/07/02 09:53:27;;;;;;;5.30;2.80;;;;;;;;;;4911116;29;20508;-85
2023/07/02 09:55:53;;;;;;;5.18;2.70;;;;;;;;;;4927011;29;20031;-86
2023/07/02 09:58:18;;;;;;;6.55;2.60;;;;;;;;;;4903782;29;20419;-84
2023/07/02 10:00:46;;;;;;;5.55;2.70;;;;;;;;;;4902547;29;20119;-86
2023/07/02 10:03:12;;;;;;;6.47;2.83;;;;;;;;;;4915856;29;20040;-84
2023/07/02 10:05:40;;;;;;;6.53;2.80;;;;;;;;;;4889857;29;20050;-85
2023/07/02 10:08:21;;;;;;;7.13;2.90;;;;;;;;;;4912349;29;20080;-85
2023/07/02 10:10:48;;;;;;;6.05;2.80;;;;;;;;;;4921019;29;20040;-86
2023/07/02 10:13:26;;;;;;;8.75;3.33;;;;;;;;;;4923771;29;20066;-83
2023/07/02 10:16:01;;;;;;;6.03;3.28;;;;;;;;;;4920401;29;20119;-85
2023/07/02 10:18:28;;;;;;;7.07;3.05;;;;;;;;;;4918035;29;20067;-84
2023/07/02 10:20:54;;;;;;;7.97;3.25;;;;;;;;;;4900982;29;20071;-85
2023/07/02 10:23:20;;;;;;;10.60;3.40;;;;;;;;;;4910716;29;20074;-85
2023/07/02 10:25:55;;;;;;;6.13;3.15;;;;;;;;;;4910267;29;20042;-85
2023/07/02 10:28:26;;;;;;;7.82;3.80;;;;;;;;;;4903990;29;21027;-84
2023/07/02 10:30:53;;;;;;;6.97;3.53;;;;;;;;;;4909777;29;20146;-85
2023/07/02 10:33:19;;;;;;;7.00;3.45;;;;;;;;;;4906395;29;20046;-84
2023/07/02 10:35:48;;;;;;;7.05;3.42;;;;;;;;;;4900500;29;20669;-86
2023/07/02 10:38:26;;;;;;;7.72;3.47;;;;;;;;;;4911434;29;20035;-84
2023/07/02 10:40:58;;;;;;;8.90;3.65;;;;;;;;;;4915993;29;20042;-82
2023/07/02 10:43:28;;;;;;;10.05;3.22;;;;;;;;;;4911447;29;20052;-86
2023/07/02 10:46:02;;;;;;;9.60;3.78;;;;;;;;;;4898642;29;20090;-84
2023/07/02 10:48:29;;;;;;;7.85;3.78;;;;;;;;;;4926973;29;20539;-85
2023/07/02 10:50:54;;;;;;;8.27;3.50;;;;;;;;;;4898981;29;20059;-85
2023/07/02 10:53:26;;;;;;;9.05;4.00;;;;;;;;;;4910243;29;20481;-85
2023/07/02 10:55:55;;;;;;;7.95;3.50;;;;;;;;;;4925532;29;20126;-85
2023/07/02 10:58:21;;;;;;;8.57;3.95;;;;;;;;;;4927656;29;20043;-82
2023/07/02 11:00:50;;;;;;;8.25;4.13;;;;;;;;;;4911260;29;20040;-91
2023/07/02 11:03:23;;;;;;;9.95;4.35;;;;;;;;;;4900838;29;20838;-88
2023/07/02 11:05:52;;;;;;;10.25;4.38;;;;;;;;;;4910111;29;20114;-81
2023/07/02 11:08:21;;;;;;;7.70;4.05;;;;;;;;;;4909599;29;20439;-84
2023/07/02 11:10:46;;;;;;;10.00;4.03;;;;;;;;;;4909174;29;20040;-84
2023/07/02 11:13:16;;;;;;;8.10;4.07;;;;;;;;;;4909982;29;20031;-84
2023/07/02 11:15:42;;;;;;;9.68;4.25;;;;;;;;;;4901797;28;20039;-84
2023/07/02 11:18:14;;;;;;;10.90;4.40;;;;;;;;;;4902678;29;20055;-85
2023/07/02 11:20:41;;;;;;;9.85;4.07;;;;;;;;;;4925153;29;20040;-84
2023/07/02 11:23:25;;;;;;;8.27;4.15;;;;;;;;;;4926066;29;20171;-82
2023/07/02 11:26:08;;;;;;;8.68;4.10;;;;;;;;;;4912032;29;20539;-84
2023/07/02 11:28:48;;;;;;;8.00;3.78;;;;;;;;;;4921278;29;20043;-84
2023/07/02 11:31:13;;;;;;;8.40;4.05;;;;;;;;;;4903344;29;20040;-85
2023/07/02 11:33:44;;;;;;;6.97;3.90;;;;;;;;;;4925069;29;20440;-84
2023/07/02 11:36:25;;;;;;;8.63;4.28;;;;;;;;;;4924784;29;20043;-80
2023/07/02 11:38:55;;;;;;;9.40;4.47;;;;;;;;;;4924394;29;20032;-79
2023/07/02 11:41:21;;;;;;;11.40;4.10;;;;;;;;;;4902531;29;20577;-79
2023/07/02 11:43:47;;;;;;;8.50;4.28;;;;;;;;;;4910987;29;20040;-79
2023/07/02 11:46:13;;;;;;;11.32;4.80;;;;;;;;;;4910125;29;20606;-79
2023/07/02 11:48:38;;;;;;;13.05;4.30;;;;;;;;;;4933284;29;20046;-79
2023/07/02 11:51:03;;;;;;;9.00;4.47;;;;;;;;;;4925267;29;20043;-80
2023/07/02 11:53:29;;;;;;;12.32;4.72;;;;;;;;;;4925807;29;20060;-78
2023/07/02 11:55:54;;;;;;;9.27;4.20;;;;;;;;;;4932814;29;20056;-78
2023/07/02 11:58:20;;;;;;;10.00;4.38;;;;;;;;;;4927290;29;20044;-80
2023/07/02 12:00:45;;;;;;;10.07;4.68;;;;;;;;;;4925763;29;20148;-78
2023/07/02 12:03:11;;;;;;;10.10;4.50;;;;;;;;;;4910898;29;20056;-79
2023/07/02 12:05:37;;;;;;;11.30;5.10;;;;;;;;;;4910137;29;20504;-79
2023/07/02 12:08:03;;;;;;;8.50;4.15;;;;;;;;;;4925251;29;20062;-79
2023/07/02 12:10:28;;;;;;;11.75;4.38;;;;;;;;;;4922325;29;20039;-79
2023/07/02 12:12:54;;;;;;;9.90;4.35;;;;;;;;;;4909581;29;20036;-78
2023/07/02 12:15:19;;;;;;;10.57;4.45;;;;;;;;;;4909305;29;20031;-79
2023/07/02 12:17:44;;;;;;;8.93;4.20;;;;;;;;;;4908261;29;20142;-79
2023/07/02 12:20:10;;;;;;;10.32;4.20;;;;;;;;;;4924922;28;20031;-80
2023/07/02 12:22:36;;;;;;;9.57;4.38;;;;;;;;;;4908478;29;20118;-77
2023/07/02 12:25:04;;;;;;;8.95;4.03;;;;;;;;;;4927397;29;20042;-78
2023/07/02 12:27:29;;;;;;;9.45;4.22;;;;;;;;;;4931576;29;20403;-78
2023/07/02 12:29:56;;;;;;;10.57;4.50;;;;;;;;;;4934407;29;20050;-78
2023/07/02 12:32:27;;;;;;;11.38;4.63;;;;;;;;;;4926352;29;20039;-77
2023/07/02 12:34:52;;;;;;;9.23;4.10;;;;;;;;;;4914977;29;20075;-78
2023/07/02 12:37:20;;;;;;;8.18;4.20;;;;;;;;;;4916115;29;20496;-77
2023/07/02 12:39:45;;;;;;;10.77;4.47;;;;;;;;;;4927234;29;20118;-77
2023/07/02 12:42:11;;;;;;;10.05;5.13;;;;;;;;;;4946786;29;20127;-79
2023/07/02 12:44:39;;;;;;;12.73;4.68;;;;;;;;;;4917508;29;20436;-79
2023/07/02 12:47:05;;;;;;;10.13;4.80;;;;;;;;;;4918464;29;20044;-79
2023/07/02 12:49:30;;;;;;;11.25;4.40;;;;;;;;;;4919142;29;20040;-78
2023/07/02 12:51:56;;;;;;;9.88;4.03;;;;;;;;;;4926993;29;20036;-79
2023/07/02 12:54:21;;;;;;;9.88;4.70;;;;;;;;;;4920596;29;20079;-79
2023/07/02 12:56:49;;;;;;;8.95;4.32;;;;;;;;;;4931091;29;20035;-77
2023/07/02 12:59:15;;;;;;;11.68;4.75;;;;;;;;;;4917791;29;20043;-80
2023/07/02 13:01:40;;;;;;;11.98;4.60;;;;;;;;;;4914087;29;20038;-79
2023/07/02 13:04:06;;;;;;;9.88;4.68;;;;;;;;;;4925861;29;20046;-78
2023/07/02 13:06:34;;;;;;;9.70;4.20;;;;;;;;;;4916053;29;20480;-79
2023/07/02 13:08:59;;;;;;;11.98;4.60;;;;;;;;;;4930760;29;20158;-79
2023/07/02 13:11:25;;;;;;;10.77;4.30;;;;;;;;;;4915183;29;20040;-78
2023/07/02 13:13:51;;;;;;;12.57;4.75;;;;;;;;;;4932683;29;20035;-79
2023/07/02 13:16:16;;;;;;;10.55;4.28;;;;;;;;;;4932677;29;20039;-80
2023/07/02 13:18:41;;;;;;;9.75;5.15;;;;;;;;;;4915650;29;20047;-79
2023/07/02 13:21:07;;;;;;;12.55;4.47;;;;;;;;;;4914758;29;20054;-76
2023/07/02 13:23:32;;;;;;;12.20;4.70;;;;;;;;;;4931697;29;20043;-78
2023/07/02 13:25:58;;;;;;;10.45;4.70;;;;;;;;;;4924297;29;20031;-77
2023/07/02 13:28:28;;;;;;;10.30;4.50;;;;;;;;;;4919615;29;20767;-78
2023/07/02 13:30:56;;;;;;;11.35;5.10;;;;;;;;;;4930595;29;20086;-77
2023/07/02 13:33:24;;;;;;;9.27;4.50;;;;;;;;;;4916061;29;20039;-80
2023/07/02 13:35:49;;;;;;;10.98;4.50;;;;;;;;;;4936491;28;20536;-80
2023/07/02 13:38:15;;;;;;;7.53;4.00;;;;;;;;;;4943920;29;20131;-78
2023/07/02 13:40:43;;;;;;;8.80;4.78;;;;;;;;;;4926810;29;20050;-79
2023/07/02 13:43:08;;;;;;;13.05;4.07;;;;;;;;;;4944143;29;20059;-79
2023/07/02 13:45:34;;;;;;;11.23;4.50;;;;;;;;;;4927852;29;20158;-78
2023/07/02 13:48:00;;;;;;;9.85;4.43;;;;;;;;;;4927460;29;20039;-79
2023/07/02 13:50:25;;;;;;;9.63;4.20;;;;;;;;;;4911873;29;20036;-79
2023/07/02 13:52:50;;;;;;;10.00;4.45;;;;;;;;;;4927127;29;20036;-78
2023/07/02 13:55:16;;;;;;;10.18;4.38;;;;;;;;;;4943553;29;20773;-79
2023/07/02 13:57:42;;;;;;;9.98;4.10;;;;;;;;;;4928088;29;20455;-78
2023/07/02 14:00:08;;;;;;;9.82;4.30;;;;;;;;;;4934754;29;20522;-78
2023/07/02 14:02:34;;;;;;;10.57;4.43;;;;;;;;;;4925685;29;20695;-78
2023/07/02 14:05:08;;;;;;;10.25;4.63;;;;;;;;;;4927732;29;20024;-78
2023/07/02 14:07:33;;;;;;;10.18;4.30;;;;;;;;;;4910157;29;20754;-80
2023/07/02 14:09:59;;;;;;;15.27;5.05;;;;;;;;;;4928467;29;20079;-78
2023/07/02 14:12:24;;;;;;;10.05;4.55;;;;;;;;;;4935544;29;20684;-78
2023/07/02 14:14:50;;;;;;;9.27;4.38;;;;;;;;;;4919577;29;20115;-79
2023/07/02 14:17:17;;;;;;;9.27;4.40;;;;;;;;;;4944165;29;20031;-78
2023/07/02 14:19:43;;;;;;;8.13;4.03;;;;;;;;;;4941967;29;20094;-78
2023/07/02 14:22:09;;;;;;;10.93;4.80;;;;;;;;;;4928111;29;20437;-79
2023/07/02 14:24:34;;;;;;;10.60;4.35;;;;;;;;;;4923335;29;20052;-77
2023/07/02 14:27:00;;;;;;;9.25;4.30;;;;;;;;;;4909053;29;20473;-78
2023/07/02 14:29:25;;;;;;;12.48;4.13;;;;;;;;;;4911423;29;20094;-78
2023/07/02 14:31:50;;;;;;;10.45;4.03;;;;;;;;;;4926239;29;20045;-77
2023/07/02 14:34:16;;;;;;;8.40;4.30;;;;;;;;;;4904004;29;20051;-77
2023/07/02 14:36:41;;;;;;;12.38;4.28;;;;;;;;;;4915999;29;20035;-77
2023/07/02 14:39:07;;;;;;;10.32;4.15;;;;;;;;;;4909338;29;20051;-77
2023/07/02 14:41:35;;;;;;;8.23;4.50;;;;;;;;;;4910385;29;20056;-79
2023/07/02 14:44:04;;;;;;;8.05;4.10;;;;;;;;;;4907685;29;20511;-79
2023/07/02 14:46:30;;;;;;;11.43;4.53;;;;;;;;;;4924150;29;20800;-79
2023/07/02 14:48:56;;;;;;;9.32;4.20;;;;;;;;;;4903837;29;20118;-79
2023/07/02 14:51:23;;;;;;;8.70;3.75;;;;;;;;;;4939847;29;20062;-78
2023/07/02 14:53:49;;;;;;;10.15;4.60;;;;;;;;;;4911072;29;20507;-79
2023/07/02 14:56:15;;;;;;;10.95;4.53;;;;;;;;;;4924341;29;20559;-79
2023/07/02 14:58:40;;;;;;;9.27;4.50;;;;;;;;;;4940527;29;20040;-78
2023/07/02 15:01:09;;;;;;;8.18;3.97;;;;;;;;;;4915782;29;20036;-77
2023/07/02 15:03:34;;;;;;;8.15;3.80;;;;;;;;;;4925593;29;20528;-78
2023/07/02 15:06:17;;;;;;;10.48;4.32;;;;;;;;;;4932874;29;20036;-77
2023/07/02 15:08:43;;;;;;;12.30;4.25;;;;;;;;;;4922805;28;20035;-77